Terminal Aerodrome Forecast
Issued by NWS

Home | Current Version | Previous Version | Text Only | Print | Product List | Glossary On
Versions: 1 2 3 4 5 6 7 8 9 10 11 12 13 14 15 16 17 18
000
FTUS41 KPBZ 011700
TAFZZV
TAF
KZZV 011720Z 0118/0218 32004KT P6SM FEW012 OVC027
     FM012000 14005KT P6SM SCT025
     FM020800 00000KT 3SM BR SCT001
     FM021100 00000KT 1/2SM FG OVC001
     FM021400 VRB03KT P6SM SCT025=

USA.gov is the U.S. government's official web portal to all federal, state and local government web resources and services.